createdAt,value
2022-09-01T00:00:44.102Z,1.00
2022-09-01T00:01:44.171Z,1.10
2022-09-01T00:02:44.446Z,1.00
2022-09-01T00:03:44.486Z,0.80
2022-09-01T00:04:44.152Z,0.90
2022-09-01T00:05:44.163Z,1.10
2022-09-01T00:06:43.997Z,1.10
2022-09-01T00:07:47.400Z,1.10
2022-09-01T00:08:43.950Z,1.10
2022-09-01T00:09:44.264Z,1.40
2022-09-01T00:10:44.417Z,1.00
2022-09-01T00:11:43.937Z,1.20
2022-09-01T00:12:44.273Z,1.10
2022-09-01T00:13:44.122Z,1.10
2022-09-01T00:14:44.291Z,1.10
2022-09-01T00:15:44.130Z,0.90
2022-09-01T00:16:44.049Z,1.20
2022-09-01T00:17:44.044Z,1.10
2022-09-01T00:18:44.046Z,1.00
2022-09-01T00:19:44.555Z,1.10
2022-09-01T00:20:44.041Z,1.00
2022-09-01T00:21:44.170Z,1.10
2022-09-01T00:22:44.238Z,1.00
2022-09-01T00:23:43.960Z,1.10
2022-09-01T00:24:43.977Z,1.20
2022-09-01T00:25:43.941Z,1.20
2022-09-01T00:26:44.067Z,0.90
2022-09-01T00:27:44.194Z,1.20
2022-09-01T00:28:44.937Z,1.00
2022-09-01T00:29:44.161Z,1.20
2022-09-01T00:30:43.985Z,1.10
2022-09-01T00:31:43.951Z,1.20
2022-09-01T00:32:44.069Z,1.20
2022-09-01T00:33:43.873Z,1.10
2022-09-01T00:34:43.895Z,1.10
2022-09-01T00:35:43.976Z,1.30
2022-09-01T00:36:43.743Z,1.20
2022-09-01T00:37:43.641Z,1.30
2022-09-01T00:38:43.644Z,1.00
2022-09-01T00:39:43.646Z,1.00
2022-09-01T00:40:43.603Z,1.30
2022-09-01T00:41:43.559Z,1.20
2022-09-01T00:42:43.618Z,0.90
2022-09-01T00:43:43.575Z,1.10
2022-09-01T00:44:43.568Z,1.20
2022-09-01T00:45:43.540Z,1.20
2022-09-01T00:46:47.692Z,0.80
2022-09-01T00:47:43.541Z,1.00
2022-09-01T00:48:43.480Z,1.20
2022-09-01T00:49:43.499Z,1.20
2022-09-01T00:50:43.985Z,0.80
2022-09-01T00:51:43.568Z,1.10
2022-09-01T00:52:43.412Z,1.10
2022-09-01T00:53:43.414Z,1.10
2022-09-01T00:54:43.413Z,0.90
2022-09-01T00:55:43.490Z,0.90
2022-09-01T00:56:46.509Z,0.90
2022-09-01T00:57:43.968Z,1.20
2022-09-01T00:58:43.352Z,1.10
2022-09-01T00:59:43.352Z,0.80
2022-09-01T01:00:43.324Z,1.00
2022-09-01T01:01:43.407Z,1.10
2022-09-01T01:02:43.407Z,1.10
2022-09-01T01:03:43.324Z,0.80
2022-09-01T01:04:43.299Z,1.20
2022-09-01T01:05:43.289Z,0.90
2022-09-01T01:06:43.251Z,0.80
2022-09-01T01:07:43.327Z,1.00
2022-09-01T01:08:43.251Z,1.00
2022-09-01T01:09:43.250Z,1.00
2022-09-01T01:10:43.222Z,1.00
2022-09-01T01:11:43.221Z,1.20
2022-09-01T01:12:43.197Z,1.00
2022-09-01T01:13:43.221Z,0.90
2022-09-01T01:14:45.836Z,0.90
2022-09-01T01:15:43.211Z,1.10
2022-09-01T01:16:43.205Z,1.00
2022-09-01T01:17:43.137Z,1.00
2022-09-01T01:18:43.122Z,0.80
2022-09-01T01:19:43.189Z,1.30
2022-09-01T01:20:43.374Z,1.20
2022-09-01T01:21:43.111Z,1.10
2022-09-01T01:22:43.149Z,1.00
2022-09-01T01:23:43.089Z,0.90
2022-09-01T01:24:43.067Z,1.10
2022-09-01T01:25:43.109Z,1.00
2022-09-01T01:26:43.071Z,0.90
2022-09-01T01:27:43.308Z,1.20
2022-09-01T01:28:43.013Z,1.10
2022-09-01T01:29:43.068Z,1.00
2022-09-01T01:30:43.100Z,0.90
2022-09-01T01:31:43.032Z,0.80
2022-09-01T01:32:43.082Z,0.90
2022-09-01T01:33:43.172Z,1.10
2022-09-01T01:34:42.961Z,1.20
2022-09-01T01:35:42.989Z,0.90
2022-09-01T01:36:42.936Z,0.90
2022-09-01T01:37:43.238Z,1.00
2022-09-01T01:38:42.962Z,0.90
2022-09-01T01:39:42.902Z,1.00
2022-09-01T01:40:42.991Z,0.90
2022-09-01T01:41:42.869Z,1.00
2022-09-01T01:42:43.550Z,1.00
2022-09-01T01:43:42.942Z,1.00
2022-09-01T01:44:42.874Z,0.80
2022-09-01T01:45:42.937Z,1.10
2022-09-01T01:46:42.836Z,1.00
2022-09-01T01:47:42.816Z,1.10
2022-09-01T01:48:42.786Z,1.00
2022-09-01T01:49:42.882Z,1.40
2022-09-01T01:50:42.783Z,0.90
2022-09-01T01:51:43.013Z,1.10
2022-09-01T01:52:45.487Z,1.00
2022-09-01T01:53:42.748Z,0.90
2022-09-01T01:54:42.764Z,1.20
2022-09-01T01:55:42.807Z,0.90
2022-09-01T01:56:42.699Z,1.00
2022-09-01T01:57:42.701Z,0.90
2022-09-01T01:58:42.674Z,1.10
2022-09-01T01:59:42.679Z,0.90
2022-09-01T02:00:42.659Z,0.80
2022-09-01T02:01:42.825Z,0.90
2022-09-01T02:02:42.662Z,1.00
2022-09-01T02:03:42.623Z,1.10
2022-09-01T02:04:42.614Z,1.00
2022-09-01T02:05:42.610Z,0.90
2022-09-01T02:06:42.597Z,1.00
2022-09-01T02:07:42.622Z,1.00
2022-09-01T02:08:42.558Z,0.80
2022-09-01T02:09:42.554Z,0.60
2022-09-01T02:10:42.587Z,0.70
2022-09-01T02:11:42.526Z,0.90
2022-09-01T02:12:42.557Z,0.70
2022-09-01T02:13:43.015Z,0.90
2022-09-01T02:14:42.824Z,0.80
2022-09-01T02:15:42.473Z,0.60
2022-09-01T02:16:42.647Z,0.90
2022-09-01T02:17:42.539Z,0.80
2022-09-01T02:18:42.477Z,0.80
2022-09-01T02:19:42.500Z,0.80
2022-09-01T02:20:42.420Z,0.70
2022-09-01T02:21:42.981Z,0.60
2022-09-01T02:22:42.395Z,0.60
2022-09-01T02:23:42.389Z,0.80
2022-09-01T02:24:42.393Z,0.90
2022-09-01T02:25:58.953Z,0.60
2022-09-01T02:26:42.360Z,0.80
2022-09-01T02:27:42.347Z,0.80
2022-09-01T02:28:42.344Z,0.70
2022-09-01T02:29:43.576Z,0.70
2022-09-01T02:30:42.356Z,0.70
2022-09-01T02:31:42.401Z,0.70
2022-09-01T02:32:42.297Z,0.70
2022-09-01T02:33:42.284Z,0.70
2022-09-01T02:34:42.258Z,0.70
2022-09-01T02:35:42.531Z,0.90
2022-09-01T02:36:42.243Z,0.70
2022-09-01T02:37:42.315Z,0.70
2022-09-01T02:38:42.224Z,0.80
2022-09-01T02:39:42.217Z,0.80
2022-09-01T02:40:42.250Z,0.80
2022-09-01T02:41:42.192Z,0.70
2022-09-01T02:42:42.168Z,0.60
2022-09-01T02:43:42.218Z,0.70
2022-09-01T02:44:42.162Z,0.70
2022-09-01T02:45:42.181Z,0.90
2022-09-01T02:46:43.029Z,0.80
2022-09-01T02:47:42.111Z,0.90
2022-09-01T02:48:42.113Z,0.80
2022-09-01T02:49:42.136Z,0.70
2022-09-01T02:50:42.075Z,0.90
2022-09-01T02:51:42.077Z,0.70
2022-09-01T02:52:42.068Z,0.80
2022-09-01T02:53:42.045Z,0.60
2022-09-01T02:54:42.033Z,0.80
2022-09-01T02:55:42.128Z,0.80
2022-09-01T02:56:42.011Z,0.80
2022-09-01T02:57:42.023Z,1.30
2022-09-01T02:58:42.041Z,0.80
2022-09-01T02:59:43.957Z,0.80
2022-09-01T03:00:41.967Z,0.80
2022-09-01T03:01:41.996Z,0.70
2022-09-01T03:02:41.946Z,0.80
2022-09-01T03:03:41.942Z,0.90
2022-09-01T03:04:42.018Z,0.90
2022-09-01T03:05:41.912Z,1.10
2022-09-01T03:06:41.910Z,0.90
2022-09-01T03:07:42.204Z,1.20
2022-09-01T03:08:42.456Z,1.10
2022-09-01T03:09:42.127Z,0.80
2022-09-01T03:10:41.875Z,1.20
2022-09-01T03:11:41.841Z,1.20
2022-09-01T03:12:41.862Z,1.00
2022-09-01T03:13:42.177Z,1.30
2022-09-01T03:14:41.836Z,1.10
2022-09-01T03:15:41.798Z,1.30
2022-09-01T03:16:41.889Z,1.10
2022-09-01T03:17:41.793Z,1.00
2022-09-01T03:18:41.762Z,0.90
2022-09-01T03:19:41.889Z,1.00
2022-09-01T03:20:41.754Z,1.10
2022-09-01T03:21:41.765Z,1.10
2022-09-01T03:22:41.723Z,1.10
2022-09-01T03:23:41.714Z,1.10
2022-09-01T03:24:41.690Z,1.20
2022-09-01T03:25:41.758Z,1.10
2022-09-01T03:26:41.677Z,0.90
2022-09-01T03:27:41.682Z,0.70
2022-09-01T03:28:41.653Z,1.00
2022-09-01T03:29:41.641Z,0.90
2022-09-01T03:30:41.674Z,1.30
2022-09-01T03:31:41.718Z,0.90
2022-09-01T03:32:41.612Z,1.00
2022-09-01T03:33:41.670Z,0.90
2022-09-01T03:34:41.573Z,0.90
2022-09-01T03:35:41.956Z,1.00
2022-09-01T03:36:42.409Z,1.20
2022-09-01T03:37:41.658Z,1.10
2022-09-01T03:38:41.529Z,0.90
2022-09-01T03:39:41.527Z,1.10
2022-09-01T03:40:41.587Z,1.10
2022-09-01T03:41:41.503Z,1.00
2022-09-01T03:42:41.525Z,1.00
2022-09-01T03:43:47.225Z,0.80
2022-09-01T03:44:41.483Z,1.10
2022-09-01T03:45:41.497Z,0.90
2022-09-01T03:46:41.444Z,1.00
2022-09-01T03:47:41.470Z,0.90
2022-09-01T03:48:41.443Z,1.20
2022-09-01T03:49:41.455Z,0.90
2022-09-01T03:50:41.398Z,1.20
2022-09-01T03:51:41.395Z,1.00
2022-09-01T03:52:42.400Z,1.20
2022-09-01T03:53:41.392Z,1.10
2022-09-01T03:54:41.388Z,1.00
2022-09-01T03:55:41.385Z,1.10
2022-09-01T03:56:41.349Z,1.10
2022-09-01T03:57:41.322Z,0.90
2022-09-01T03:58:41.304Z,1.20
2022-09-01T03:59:41.992Z,1.00
2022-09-01T04:00:48.938Z,1.00
2022-09-01T04:01:41.970Z,0.90
2022-09-01T04:02:41.348Z,0.90
2022-09-01T04:03:41.257Z,0.80
2022-09-01T04:04:41.969Z,1.10
2022-09-01T04:05:41.229Z,0.90
2022-09-01T04:06:41.264Z,1.10
2022-09-01T04:07:41.261Z,1.00
2022-09-01T04:08:41.206Z,0.90
2022-09-01T04:09:41.183Z,1.10
2022-09-01T04:10:41.205Z,1.10
2022-09-01T04:11:45.199Z,1.00
2022-09-01T04:12:41.143Z,1.00
2022-09-01T04:13:41.179Z,1.10
2022-09-01T04:14:41.117Z,1.10
2022-09-01T04:15:41.177Z,1.00
2022-09-01T04:16:41.193Z,1.00
2022-09-01T04:17:41.100Z,0.80
2022-09-01T04:18:41.116Z,0.80
2022-09-01T04:19:41.229Z,1.10
2022-09-01T04:20:41.064Z,0.90
2022-09-01T04:21:41.065Z,1.20
2022-09-01T04:22:41.314Z,0.80
2022-09-01T04:23:41.030Z,1.00
2022-09-01T04:24:44.854Z,1.20
2022-09-01T04:25:41.940Z,1.10
2022-09-01T04:26:41.002Z,1.30
2022-09-01T04:27:40.988Z,1.00
2022-09-01T04:28:41.212Z,1.10
2022-09-01T04:29:40.965Z,1.00
2022-09-01T04:30:40.990Z,1.20
2022-09-01T04:31:41.538Z,1.30
2022-09-01T04:32:42.392Z,1.10
2022-09-01T04:33:41.014Z,1.00
2022-09-01T04:34:40.965Z,1.10
2022-09-01T04:35:40.886Z,1.00
2022-09-01T04:36:40.911Z,1.10
2022-09-01T04:37:41.298Z,1.20
2022-09-01T04:38:41.086Z,1.00
2022-09-01T04:39:40.957Z,1.10
2022-09-01T04:40:41.923Z,1.00
2022-09-01T04:41:40.815Z,1.10
2022-09-01T04:42:41.373Z,1.20
2022-09-01T04:43:41.251Z,1.10
2022-09-01T04:44:41.001Z,1.10
2022-09-01T04:45:41.197Z,1.10
2022-09-01T04:46:41.075Z,1.10
2022-09-01T04:47:40.752Z,1.10
2022-09-01T04:48:40.943Z,1.30
2022-09-01T04:49:40.932Z,1.10
2022-09-01T04:50:40.735Z,1.00
2022-09-01T04:51:40.702Z,1.10
2022-09-01T04:52:40.769Z,1.10
2022-09-01T04:53:40.698Z,1.30
2022-09-01T04:54:40.739Z,1.10
2022-09-01T04:55:41.295Z,1.10
2022-09-01T04:56:40.949Z,1.20
2022-09-01T04:57:40.637Z,1.00
2022-09-01T04:58:40.625Z,1.30
2022-09-01T04:59:40.837Z,1.10
2022-09-01T05:00:40.617Z,1.10
2022-09-01T05:01:41.500Z,1.10
2022-09-01T05:02:40.627Z,1.00
2022-09-01T05:03:40.562Z,1.30
2022-09-01T05:04:40.555Z,1.00
2022-09-01T05:05:40.530Z,1.10
2022-09-01T05:06:40.573Z,1.10
2022-09-01T05:07:40.980Z,1.10
2022-09-01T05:08:40.521Z,1.30
2022-09-01T05:09:40.512Z,1.00
2022-09-01T05:10:40.498Z,1.10
2022-09-01T05:11:40.484Z,1.20
2022-09-01T05:12:41.509Z,1.10
2022-09-01T05:13:40.456Z,1.20
2022-09-01T05:14:40.443Z,0.80
2022-09-01T05:15:40.886Z,1.20
2022-09-01T05:16:40.494Z,1.20
2022-09-01T05:17:40.420Z,1.10
2022-09-01T05:18:40.524Z,1.20
2022-09-01T05:19:41.241Z,1.00
2022-09-01T05:20:40.509Z,1.20
2022-09-01T05:21:40.456Z,0.90
2022-09-01T05:22:41.029Z,1.20
2022-09-01T05:23:40.463Z,1.00
2022-09-01T05:24:42.206Z,1.10
2022-09-01T05:25:40.496Z,1.20
2022-09-01T05:26:42.254Z,1.20
2022-09-01T05:27:40.319Z,1.20
2022-09-01T05:29:33.587Z,0.90
2022-09-01T05:31:34.899Z,1.30
2022-09-01T05:32:34.924Z,1.30
2022-09-01T05:33:35.541Z,1.40
2022-09-01T05:34:34.550Z,1.40
2022-09-01T05:35:34.709Z,1.40
2022-09-01T05:36:35.007Z,1.20
2022-09-01T05:37:34.607Z,1.50
2022-09-01T05:38:34.816Z,1.30
2022-09-01T05:39:34.400Z,1.40
2022-09-01T05:40:34.485Z,1.60
2022-09-01T05:41:34.559Z,1.50
2022-09-01T05:42:35.335Z,1.30
2022-09-01T05:43:35.475Z,1.30
2022-09-01T05:44:35.647Z,1.30
2022-09-01T05:45:50.372Z,1.40
2022-09-01T05:46:34.435Z,1.40
2022-09-01T05:47:34.510Z,1.40
2022-09-01T05:48:34.709Z,1.70
2022-09-01T05:49:34.610Z,1.20
2022-09-01T05:50:34.668Z,1.30
2022-09-01T05:51:50.568Z,1.30
2022-09-01T05:52:34.463Z,1.30
2022-09-01T05:53:34.423Z,1.10
2022-09-01T05:54:35.128Z,1.10
2022-09-01T05:55:34.283Z,1.10
2022-09-01T05:56:34.228Z,1.20
2022-09-01T05:57:35.259Z,1.00
2022-09-01T05:59:34.629Z,1.10
2022-09-01T06:00:34.669Z,1.20
2022-09-01T06:01:34.364Z,1.20
2022-09-01T06:02:34.531Z,1.10
2022-09-01T06:03:38.003Z,1.20
2022-09-01T06:04:34.281Z,1.20
2022-09-01T06:05:34.621Z,1.20
2022-09-01T06:06:48.966Z,1.30
2022-09-01T06:07:34.338Z,1.40
2022-09-01T06:08:34.260Z,1.40
2022-09-01T06:09:34.448Z,1.40
2022-09-01T06:10:34.163Z,1.20
2022-09-01T06:11:34.338Z,1.30
2022-09-01T06:12:34.350Z,1.10
2022-09-01T06:13:34.046Z,1.20
2022-09-01T06:14:34.048Z,0.90
2022-09-01T06:15:34.992Z,1.20
2022-09-01T06:16:34.131Z,1.10
2022-09-01T06:17:35.883Z,0.90
2022-09-01T06:18:34.102Z,1.00
2022-09-01T06:19:37.259Z,1.30
2022-09-01T06:20:34.207Z,1.00
2022-09-01T06:21:34.479Z,1.20
2022-09-01T06:22:34.013Z,1.10
2022-09-01T06:23:34.301Z,1.00
2022-09-01T06:24:34.023Z,1.00
2022-09-01T06:25:34.149Z,1.00
2022-09-01T06:26:34.253Z,1.10
2022-09-01T06:27:33.991Z,0.90
2022-09-01T06:28:34.183Z,0.80
2022-09-01T06:29:33.864Z,1.10
2022-09-01T06:30:34.573Z,1.00
2022-09-01T06:31:34.346Z,0.90
2022-09-01T06:32:33.880Z,1.20
2022-09-01T06:33:33.919Z,1.10
2022-09-01T06:34:33.823Z,1.00
2022-09-01T06:35:33.930Z,1.00
2022-09-01T06:36:35.116Z,1.10
2022-09-01T06:37:33.983Z,0.90
2022-09-01T06:38:34.009Z,1.00
2022-09-01T06:39:33.988Z,0.90
2022-09-01T06:40:34.203Z,1.10
2022-09-01T06:41:33.724Z,1.00
2022-09-01T06:42:34.175Z,1.10
2022-09-01T06:43:33.993Z,0.90
2022-09-01T06:44:40.285Z,0.80
2022-09-01T06:45:34.061Z,0.90
2022-09-01T06:46:34.006Z,1.10
2022-09-01T06:47:33.902Z,0.90
2022-09-01T06:48:34.294Z,1.00
2022-09-01T06:49:34.101Z,0.80
2022-09-01T06:51:34.032Z,0.90
2022-09-01T06:53:34.362Z,0.70
2022-09-01T06:54:34.071Z,1.10
2022-09-01T06:55:33.944Z,1.00
2022-09-01T06:56:33.991Z,1.10
2022-09-01T06:58:34.758Z,1.00
2022-09-01T07:42:59.008Z,1.10
2022-09-01T07:43:07.896Z,1.10
2022-09-01T07:43:13.233Z,1.20
2022-09-01T07:44:13.093Z,0.80
2022-09-01T07:45:28.837Z,0.90
2022-09-01T07:47:51.791Z,1.00
2022-09-01T07:48:35.984Z,0.80
2022-09-01T07:50:37.022Z,1.20
2022-09-01T07:52:13.011Z,0.90
2022-09-01T07:53:13.128Z,1.10
2022-09-01T07:54:13.411Z,1.00
2022-09-01T07:55:14.003Z,1.00
2022-09-01T07:56:12.801Z,0.80
2022-09-01T07:57:13.124Z,1.00
2022-09-01T07:58:12.924Z,0.80
2022-09-01T07:59:14.703Z,0.90
2022-09-01T08:00:13.016Z,1.00
2022-09-01T08:01:12.776Z,1.00
2022-09-01T08:02:13.119Z,1.00
2022-09-01T08:03:12.952Z,1.10
2022-09-01T08:04:12.854Z,0.90
2022-09-01T08:05:14.959Z,0.90
2022-09-01T08:06:13.118Z,0.80
2022-09-01T08:07:16.107Z,0.90
2022-09-01T08:08:22.722Z,0.90
2022-09-01T08:09:27.291Z,0.80
2022-09-01T08:10:13.247Z,0.80
2022-09-01T08:11:12.917Z,0.90
2022-09-01T08:12:12.774Z,1.00
2022-09-01T08:13:15.342Z,0.90
2022-09-01T08:14:13.035Z,0.90
2022-09-01T08:15:13.903Z,1.00
2022-09-01T08:16:20.063Z,0.80
2022-09-01T08:17:17.698Z,1.10
2022-09-01T08:18:14.563Z,1.20
2022-09-01T08:19:19.890Z,1.00
2022-09-01T08:20:14.006Z,1.10
2022-09-01T08:21:12.794Z,0.80
2022-09-01T08:22:13.593Z,0.90
2022-09-01T08:23:12.660Z,0.70
2022-09-01T08:24:12.875Z,0.80
2022-09-01T08:25:12.749Z,0.90
2022-09-01T08:26:12.652Z,0.70
2022-09-01T08:27:13.421Z,0.70
2022-09-01T08:28:12.728Z,0.90
2022-09-01T08:29:12.530Z,0.90
2022-09-01T08:30:12.750Z,1.00
2022-09-01T08:31:12.621Z,0.80
2022-09-01T08:32:12.320Z,0.70
2022-09-01T08:33:12.320Z,0.80
2022-09-01T08:34:12.470Z,1.00
2022-09-01T08:35:12.348Z,0.90
2022-09-01T08:36:12.560Z,0.80
2022-09-01T08:37:12.326Z,0.80
2022-09-01T08:38:12.934Z,1.00
2022-09-01T08:39:12.238Z,0.70
2022-09-01T08:40:12.260Z,1.10
2022-09-01T08:41:12.950Z,0.90
2022-09-01T08:42:12.957Z,1.00
2022-09-01T08:43:15.481Z,0.90
2022-09-01T08:44:13.217Z,0.90
2022-09-01T08:45:12.221Z,0.90
2022-09-01T08:46:12.179Z,0.90
2022-09-01T08:47:15.303Z,0.90
2022-09-01T08:49:25.305Z,0.90
2022-09-01T08:50:12.101Z,0.80
2022-09-01T08:51:17.009Z,1.00
2022-09-01T08:52:12.106Z,0.90
2022-09-01T08:53:12.092Z,0.70
2022-09-01T08:54:12.079Z,1.00
2022-09-01T08:55:12.213Z,1.10
2022-09-01T08:56:12.333Z,1.00
2022-09-01T08:57:12.005Z,0.90
2022-09-01T08:58:12.064Z,0.90
2022-09-01T08:59:12.023Z,0.80
2022-09-01T09:00:12.724Z,0.90
2022-09-01T09:01:12.061Z,0.80
2022-09-01T09:02:12.186Z,0.90
2022-09-01T09:03:12.097Z,0.90
2022-09-01T09:04:12.016Z,0.70
2022-09-01T09:05:19.057Z,0.80
2022-09-01T09:06:11.996Z,0.70
2022-09-01T09:07:13.561Z,0.70
2022-09-01T09:08:11.894Z,0.70
2022-09-01T09:09:11.948Z,0.80
2022-09-01T09:10:12.079Z,0.60
2022-09-01T09:11:13.099Z,0.70
2022-09-01T09:12:12.346Z,0.60
2022-09-01T09:13:12.500Z,0.70
2022-09-01T09:14:12.201Z,0.90
2022-09-01T09:15:12.096Z,0.80
2022-09-01T09:16:11.998Z,0.80
2022-09-01T09:17:11.900Z,0.70
2022-09-01T09:18:20.599Z,0.90
2022-09-01T09:19:12.098Z,0.60
2022-09-01T09:20:11.916Z,0.60
2022-09-01T09:21:12.068Z,0.70
2022-09-01T09:22:11.779Z,0.70
2022-09-01T09:23:11.789Z,0.70
2022-09-01T09:24:11.834Z,0.60
2022-09-01T09:25:11.786Z,1.00
2022-09-01T09:26:16.666Z,0.80
2022-09-01T09:27:11.679Z,0.70
2022-09-01T09:28:11.660Z,0.60
2022-09-01T09:29:12.001Z,0.60
2022-09-01T09:30:12.017Z,0.60
2022-09-01T09:31:11.886Z,0.80
2022-09-01T09:32:39.759Z,0.70
2022-09-01T09:34:13.128Z,0.70
2022-09-01T09:35:11.732Z,0.70
2022-09-01T09:36:12.488Z,0.50
2022-09-01T09:37:11.559Z,0.60
2022-09-01T09:38:11.543Z,0.60
2022-09-01T09:39:11.559Z,0.60
2022-09-01T09:40:11.599Z,0.50
2022-09-01T09:41:17.802Z,0.90
2022-09-01T09:42:13.213Z,0.50
2022-09-01T09:43:11.546Z,0.70
2022-09-01T09:44:11.641Z,0.60
2022-09-01T09:45:11.554Z,0.60
2022-09-01T09:46:23.206Z,0.70
2022-09-01T09:47:33.346Z,0.50
2022-09-01T09:48:11.658Z,0.60
2022-09-01T09:49:11.526Z,0.60
2022-09-01T09:50:11.513Z,0.60
2022-09-01T09:51:11.422Z,0.60
2022-09-01T09:52:11.430Z,0.60
2022-09-01T09:53:11.549Z,0.70
2022-09-01T09:54:12.517Z,0.60
2022-09-01T09:55:12.343Z,0.70
2022-09-01T09:56:11.669Z,0.80
2022-09-01T09:57:11.544Z,0.60
2022-09-01T09:58:11.599Z,0.70
2022-09-01T09:59:12.558Z,0.60
2022-09-01T10:00:11.667Z,0.70
2022-09-01T10:01:11.780Z,0.60
2022-09-01T10:02:12.326Z,0.80
2022-09-01T10:03:12.464Z,0.80
2022-09-01T10:04:11.439Z,0.90
2022-09-01T10:05:11.443Z,0.80
2022-09-01T10:06:11.733Z,0.80
2022-09-01T10:07:11.325Z,1.10
2022-09-01T10:08:11.454Z,1.00
2022-09-01T10:09:11.611Z,0.70
2022-09-01T10:10:11.528Z,0.70
2022-09-01T10:11:11.338Z,0.80
2022-09-01T10:12:11.582Z,0.90
2022-09-01T10:13:11.207Z,0.70
2022-09-01T10:14:13.645Z,0.80
2022-09-01T10:15:13.962Z,0.80
2022-09-01T10:16:11.442Z,0.80
2022-09-01T10:17:11.297Z,0.60
2022-09-01T10:18:20.681Z,0.40
2022-09-01T10:19:12.657Z,0.60
2022-09-01T10:20:11.411Z,0.60
2022-09-01T10:21:11.429Z,0.60
2022-09-01T10:22:11.389Z,0.70
2022-09-01T10:23:15.173Z,0.70
2022-09-01T10:24:21.026Z,0.80
2022-09-01T10:25:11.232Z,1.00
2022-09-01T10:26:11.154Z,0.70
2022-09-01T10:27:14.249Z,0.70
2022-09-01T10:28:11.991Z,0.70
2022-09-01T10:29:12.290Z,0.60
2022-09-01T10:30:12.591Z,0.80
2022-09-01T10:31:11.154Z,0.60
2022-09-01T10:32:31.422Z,0.70
2022-09-01T10:33:19.305Z,0.60
2022-09-01T10:34:11.050Z,0.70
2022-09-01T10:35:11.158Z,0.70
2022-09-01T10:36:11.148Z,0.70
2022-09-01T10:37:11.747Z,0.80
2022-09-01T10:38:12.130Z,1.00
2022-09-01T10:39:10.964Z,0.70
2022-09-01T10:40:10.978Z,0.70
2022-09-01T10:41:14.737Z,0.90
2022-09-01T10:42:13.132Z,0.80
2022-09-01T10:43:12.603Z,0.60
2022-09-01T10:44:10.822Z,0.70
2022-09-01T10:45:10.821Z,0.80
2022-09-01T10:46:15.638Z,0.60
2022-09-01T10:47:14.661Z,0.60
2022-09-01T10:48:13.242Z,0.80
2022-09-01T10:49:10.791Z,0.60
2022-09-01T10:50:11.273Z,0.70
2022-09-01T10:51:10.782Z,0.60
2022-09-01T10:52:14.091Z,0.60
2022-09-01T10:53:10.777Z,0.80
2022-09-01T10:54:10.943Z,0.70
2022-09-01T10:55:10.736Z,0.80
2022-09-01T10:56:23.469Z,0.80
2022-09-01T10:57:12.259Z,0.70
2022-09-01T10:59:31.247Z,0.80
2022-09-01T10:59:43.431Z,0.80
2022-09-01T11:00:34.911Z,0.70
2022-09-01T11:01:11.192Z,0.80
2022-09-01T11:02:28.146Z,0.70
2022-09-01T11:04:10.746Z,0.80
2022-09-01T11:05:10.715Z,0.60
2022-09-01T11:06:12.939Z,0.70
2022-09-01T11:07:12.058Z,0.50
2022-09-01T11:08:17.745Z,0.90
2022-09-01T11:09:10.648Z,0.70
2022-09-01T11:10:13.185Z,0.70
2022-09-01T11:11:10.704Z,0.70
2022-09-01T11:12:10.563Z,0.70
2022-09-01T11:13:10.519Z,0.60
2022-09-01T11:14:10.448Z,0.80
2022-09-01T11:15:10.441Z,0.70
2022-09-01T11:16:10.481Z,0.60
2022-09-01T11:17:10.499Z,0.50
2022-09-01T11:18:10.953Z,0.50
2022-09-01T11:19:16.038Z,0.70
2022-09-01T11:20:10.490Z,0.60
2022-09-01T11:21:10.378Z,0.60
2022-09-01T11:22:10.361Z,0.70
2022-09-01T11:23:10.433Z,0.50
2022-09-01T11:24:10.460Z,0.70
2022-09-01T11:25:12.697Z,0.50
2022-09-01T11:26:25.739Z,0.60
2022-09-01T11:27:10.371Z,0.50
2022-09-01T11:28:10.313Z,0.60
2022-09-01T11:29:10.428Z,0.50
2022-09-01T11:30:10.733Z,0.60
2022-09-01T11:31:10.406Z,0.40
2022-09-01T11:32:10.386Z,0.60
2022-09-01T11:33:10.351Z,0.50
2022-09-01T11:34:10.270Z,0.70
2022-09-01T11:35:10.655Z,0.60
2022-09-01T11:36:10.292Z,0.50
2022-09-01T11:37:10.304Z,0.50
2022-09-01T11:38:10.187Z,0.70
2022-09-01T11:39:10.961Z,0.60
2022-09-01T11:40:10.282Z,0.60
2022-09-01T11:41:10.214Z,0.40
2022-09-01T11:42:10.154Z,0.60
2022-09-01T11:43:12.601Z,0.50
2022-09-01T11:44:10.150Z,0.50
2022-09-01T11:45:10.145Z,0.70
2022-09-01T11:46:10.237Z,0.50
2022-09-01T11:47:14.185Z,0.60
2022-09-01T11:48:10.140Z,0.60
2022-09-01T11:49:10.198Z,0.60
2022-09-01T11:50:10.073Z,0.50
2022-09-01T11:51:14.868Z,0.60
2022-09-01T11:52:10.041Z,0.40
2022-09-01T11:53:10.076Z,0.90
2022-09-01T11:54:10.128Z,0.40
2022-09-01T11:55:10.061Z,0.50
2022-09-01T11:56:10.070Z,0.60
2022-09-01T11:57:10.115Z,0.50
2022-09-01T11:58:12.465Z,0.60
2022-09-01T11:59:10.097Z,0.60
2022-09-01T12:00:09.991Z,0.50
2022-09-01T12:01:09.988Z,0.50
2022-09-01T12:02:10.244Z,0.60
2022-09-01T12:03:10.730Z,0.60
2022-09-01T12:04:09.925Z,0.50
2022-09-01T12:05:10.230Z,0.50
2022-09-01T12:06:10.963Z,0.60
2022-09-01T12:07:11.165Z,0.50
2022-09-01T12:08:09.866Z,0.80
2022-09-01T12:09:09.845Z,0.70
2022-09-01T12:10:09.939Z,0.80
2022-09-01T12:11:09.859Z,0.50
2022-09-01T12:12:10.310Z,0.70
2022-09-01T12:13:09.885Z,0.60
2022-09-01T12:14:12.488Z,0.50
2022-09-01T12:15:09.844Z,0.60
2022-09-01T12:16:18.787Z,0.50
2022-09-01T12:17:09.974Z,0.60
2022-09-01T12:18:09.817Z,0.70
2022-09-01T12:19:09.737Z,0.50
2022-09-01T12:20:09.753Z,0.40
2022-09-01T12:21:09.813Z,0.70
2022-09-01T12:22:10.027Z,0.60
2022-09-01T12:23:10.826Z,0.50
2022-09-01T12:24:09.835Z,0.50
2022-09-01T12:25:09.787Z,0.70
2022-09-01T12:26:09.746Z,0.60
2022-09-01T12:27:09.846Z,0.50
2022-09-01T12:28:11.067Z,0.90
2022-09-01T12:29:16.507Z,0.70
2022-09-01T12:30:09.813Z,0.50
2022-09-01T12:31:09.707Z,0.60
2022-09-01T12:32:10.562Z,0.60
2022-09-01T12:33:25.223Z,0.60
2022-09-01T12:34:09.799Z,0.60
2022-09-01T12:35:11.707Z,0.60
2022-09-01T12:36:09.695Z,0.70
2022-09-01T12:37:09.657Z,0.60
2022-09-01T12:38:09.788Z,0.60
2022-09-01T12:39:09.894Z,0.70
2022-09-01T12:40:09.826Z,0.60
2022-09-01T12:41:10.919Z,0.60
2022-09-01T12:42:09.808Z,0.70
2022-09-01T12:43:11.451Z,0.70
2022-09-01T12:44:10.374Z,0.80
2022-09-01T12:45:09.591Z,1.00
2022-09-01T12:46:09.646Z,0.80
2022-09-01T12:47:09.541Z,0.60
2022-09-01T12:48:09.432Z,0.70
2022-09-01T12:49:09.438Z,0.70
2022-09-01T12:50:09.469Z,0.80
2022-09-01T12:51:09.684Z,0.60
2022-09-01T12:52:09.465Z,0.70
2022-09-01T12:53:09.984Z,0.60
2022-09-01T12:54:09.575Z,0.70
2022-09-01T12:55:09.373Z,0.90
2022-09-01T12:56:09.383Z,0.60
2022-09-01T12:57:09.383Z,0.70
2022-09-01T12:58:09.411Z,0.80
2022-09-01T12:59:14.264Z,0.80
2022-09-01T13:00:09.344Z,0.60
2022-09-01T13:01:16.350Z,0.60
2022-09-01T13:02:09.472Z,0.70
2022-09-01T13:03:09.508Z,0.80
2022-09-01T13:04:09.286Z,0.70
2022-09-01T13:05:09.887Z,0.60
2022-09-01T13:06:09.444Z,0.70
2022-09-01T13:07:09.290Z,0.60
2022-09-01T13:08:09.244Z,0.70
2022-09-01T13:09:10.211Z,0.80
2022-09-01T13:10:12.355Z,0.70
2022-09-01T13:11:11.383Z,0.70
2022-09-01T13:12:09.440Z,0.50
2022-09-01T13:13:09.463Z,0.50
2022-09-01T13:14:09.128Z,0.60
2022-09-01T13:15:09.143Z,0.70
2022-09-01T13:16:09.178Z,0.70
2022-09-01T13:17:13.873Z,0.50
2022-09-01T13:18:09.176Z,0.50
2022-09-01T13:19:10.850Z,0.50
2022-09-01T13:20:09.128Z,0.50
2022-09-01T13:21:09.071Z,0.60
2022-09-01T13:22:09.073Z,0.70
2022-09-01T13:23:09.173Z,0.60
2022-09-01T13:24:09.079Z,0.50
2022-09-01T13:25:09.010Z,0.70
2022-09-01T13:26:09.241Z,0.50
2022-09-01T13:27:24.492Z,0.50
2022-09-01T13:28:09.066Z,0.60
2022-09-01T13:29:09.039Z,0.50
2022-09-01T13:30:09.023Z,0.50
2022-09-01T13:32:19.010Z,0.50
2022-09-01T13:33:24.390Z,0.60
2022-09-01T13:34:10.585Z,0.40
2022-09-01T13:35:09.143Z,0.50
2022-09-01T13:37:08.949Z,0.50
2022-09-01T13:38:08.928Z,0.40
2022-09-01T13:39:08.981Z,0.60
2022-09-01T13:40:09.368Z,0.60
2022-09-01T13:41:09.186Z,0.40
2022-09-01T13:42:08.894Z,0.50
2022-09-01T13:43:08.812Z,0.50
2022-09-01T13:44:08.814Z,0.50
2022-09-01T13:45:10.510Z,0.50
2022-09-01T13:46:08.975Z,0.40
2022-09-01T13:48:16.633Z,0.50
2022-09-01T13:50:11.824Z,0.60
2022-09-01T13:51:18.511Z,0.50
2022-09-01T13:52:08.910Z,0.50
2022-09-01T13:53:09.389Z,0.60
2022-09-01T13:54:08.765Z,0.50
2022-09-01T13:55:08.734Z,0.70
2022-09-01T13:56:08.806Z,0.50
2022-09-01T13:57:08.722Z,0.50
2022-09-01T13:58:08.703Z,0.60
2022-09-01T13:59:08.696Z,0.60
2022-09-01T14:00:08.673Z,0.60
2022-09-01T14:01:08.811Z,0.50
2022-09-01T14:02:08.677Z,0.50
2022-09-01T14:03:08.604Z,0.70
2022-09-01T14:04:08.667Z,0.50
2022-09-01T14:05:08.677Z,0.80
2022-09-01T14:06:09.499Z,0.80
2022-09-01T14:07:08.611Z,0.70
2022-09-01T14:08:08.581Z,0.60
2022-09-01T14:09:08.694Z,0.70
2022-09-01T14:10:08.556Z,0.60
2022-09-01T14:11:08.590Z,0.70
2022-09-01T14:12:08.632Z,0.80
2022-09-01T14:13:08.553Z,0.60
2022-09-01T14:14:08.502Z,0.70
2022-09-01T14:15:17.880Z,0.80
2022-09-01T14:16:08.560Z,0.60